Terminal Aerodrome Forecast
Issued by NWS Twin Cities, MN

Home | Current Version | Previous Version | Text Only | Print | Product List | Glossary Off
Versions: 1 2 3 4 5 6 7 8 9 10 11 12 13 14 15 16 17 18 19 20 21 22 23 24 25 26 27

000
FTUS43 KMPX 152300
TAFMSP
TAF
KMSP 152336Z 1600/1706 16006KT P6SM OVC100
     FM160500 11014KT P6SM OVC080
     FM161000 09017G22KT 5SM -SN OVC050
     FM161200 09017G22KT 2SM -SN OVC025
     FM161500 09014G22KT 5SM -RA BR OVC025
     FM162200 03013G23KT 2SM -SN OVC010
     FM170300 34019G23KT 5SM -SN OVC015=

USA.gov is the U.S. government's official web portal to all federal, state and local government web resources and services.